createdAt,value
2022-12-20T00:00:02.688Z,8.77
2022-12-20T00:02:52.327Z,8.88
2022-12-20T00:05:41.976Z,8.80
2022-12-20T00:08:30.436Z,8.30
2022-12-20T00:11:18.665Z,8.65
2022-12-20T00:14:07.136Z,9.75
2022-12-20T00:16:55.389Z,10.27
2022-12-20T00:19:46.497Z,9.93
2022-12-20T00:25:23.492Z,10.60
2022-12-20T00:28:11.750Z,9.23
2022-12-20T00:31:00.263Z,9.35
2022-12-20T00:33:50.625Z,9.32
2022-12-20T00:36:41.266Z,9.15
2022-12-20T00:39:29.480Z,8.80
2022-12-20T00:42:17.743Z,8.23
2022-12-20T00:45:06.719Z,8.93
2022-12-20T00:47:55.086Z,9.23
2022-12-20T00:50:43.328Z,9.13
2022-12-20T00:53:33.250Z,9.60
2022-12-20T00:56:21.902Z,9.40
2022-12-20T00:59:10.175Z,9.73
2022-12-20T01:01:58.632Z,10.48
2022-12-20T01:04:47.014Z,10.07
2022-12-20T01:07:35.280Z,10.77
2022-12-20T01:10:24.890Z,10.15
2022-12-20T01:13:13.176Z,11.07
2022-12-20T01:16:05.940Z,10.38
2022-12-20T01:18:54.817Z,10.95
2022-12-20T01:21:45.314Z,10.65
2022-12-20T01:24:33.641Z,8.40
2022-12-20T01:27:23.352Z,11.48
2022-12-20T01:30:12.918Z,11.70
2022-12-20T01:33:01.167Z,11.18
2022-12-20T01:36:00.035Z,10.52
2022-12-20T01:38:48.531Z,10.75
2022-12-20T01:41:39.319Z,11.20
2022-12-20T01:44:55.795Z,12.13
2022-12-20T01:47:44.219Z,11.82
2022-12-20T01:50:32.551Z,11.02
2022-12-20T01:53:24.340Z,12.48
2022-12-20T01:56:16.188Z,12.40
2022-12-20T01:59:04.878Z,12.27
2022-12-20T02:01:54.725Z,12.10
2022-12-20T02:04:43.042Z,12.80
2022-12-20T02:07:36.345Z,11.77
2022-12-20T02:10:30.894Z,12.77
2022-12-20T02:13:25.797Z,12.00
2022-12-20T02:16:17.422Z,12.88
2022-12-20T02:19:22.734Z,12.30
2022-12-20T02:22:21.386Z,12.57
2022-12-20T02:25:38.245Z,12.07
2022-12-20T02:28:48.922Z,13.18
2022-12-20T02:31:42.925Z,12.70
2022-12-20T02:34:36.501Z,13.07
2022-12-20T02:37:27.195Z,12.98
2022-12-20T02:40:18.061Z,13.38
2022-12-20T02:43:32.648Z,12.82
2022-12-20T02:46:21.734Z,12.55
2022-12-20T02:49:15.802Z,12.93
2022-12-20T02:52:05.021Z,12.15
2022-12-20T02:54:53.944Z,12.32
2022-12-20T02:57:53.389Z,12.88
2022-12-20T03:00:48.394Z,12.43
2022-12-20T03:03:37.803Z,13.05
2022-12-20T03:06:27.551Z,13.07
2022-12-20T03:09:15.900Z,12.60
2022-12-20T03:12:04.632Z,12.38
2022-12-20T03:14:52.939Z,12.52
2022-12-20T03:17:41.552Z,13.93
2022-12-20T03:20:30.005Z,13.52
2022-12-20T03:23:19.660Z,12.48
2022-12-20T03:26:08.166Z,11.77
2022-12-20T03:28:56.452Z,12.68
2022-12-20T03:31:44.982Z,11.50
2022-12-20T03:34:33.249Z,12.43
2022-12-20T03:37:21.605Z,11.93
2022-12-20T03:40:12.593Z,12.00
2022-12-20T03:43:00.904Z,10.85
2022-12-20T03:45:49.211Z,10.23
2022-12-20T03:48:37.824Z,10.35
2022-12-20T03:51:26.095Z,10.75
2022-12-20T03:54:14.439Z,11.10
2022-12-20T03:57:04.177Z,10.20
2022-12-20T03:59:54.414Z,9.93
2022-12-20T04:02:42.785Z,11.07
2022-12-20T04:05:31.158Z,11.52
2022-12-20T04:08:19.512Z,9.65
2022-12-20T04:11:17.263Z,9.70
2022-12-20T04:14:07.336Z,10.05
2022-12-20T04:16:55.724Z,11.05
2022-12-20T04:19:43.961Z,10.00
2022-12-20T04:22:32.178Z,10.13
2022-12-20T04:25:22.025Z,10.80
2022-12-20T04:28:10.255Z,9.93
2022-12-20T04:30:59.947Z,9.48
2022-12-20T04:33:48.685Z,10.60
2022-12-20T04:36:36.962Z,10.63
2022-12-20T04:39:25.282Z,8.57
2022-12-20T04:42:13.525Z,9.75
2022-12-20T04:45:01.784Z,11.15
2022-12-20T04:47:51.358Z,10.23
2022-12-20T04:50:39.823Z,10.43
2022-12-20T04:53:45.697Z,10.15
2022-12-20T04:56:33.984Z,10.95
2022-12-20T04:59:22.227Z,10.63
2022-12-20T05:02:10.579Z,12.27
2022-12-20T05:05:00.294Z,10.52
2022-12-20T05:07:48.555Z,10.25
2022-12-20T05:10:36.832Z,10.40
2022-12-20T05:13:25.166Z,10.82
2022-12-20T05:16:13.842Z,9.80
2022-12-20T05:19:03.290Z,11.40
2022-12-20T05:22:10.408Z,10.60
2022-12-20T05:25:16.229Z,10.55
2022-12-20T05:28:04.787Z,10.32
2022-12-20T05:30:53.084Z,10.07
2022-12-20T05:33:41.479Z,10.07
2022-12-20T05:36:30.048Z,9.40
2022-12-20T05:39:19.930Z,9.35
2022-12-20T05:42:08.171Z,9.20
2022-12-20T05:44:56.423Z,9.40
2022-12-20T05:47:44.795Z,9.70
2022-12-20T05:50:33.964Z,9.52
2022-12-20T05:53:22.284Z,9.10
2022-12-20T05:56:12.129Z,9.45
2022-12-20T05:59:00.381Z,9.52
2022-12-20T06:01:48.745Z,10.05
2022-12-20T06:04:37.217Z,9.85
2022-12-20T06:07:25.471Z,9.82
2022-12-20T06:10:13.730Z,9.63
2022-12-20T06:13:03.631Z,9.85
2022-12-20T06:15:51.933Z,10.38
2022-12-20T06:18:40.311Z,10.13
2022-12-20T06:21:28.641Z,9.60
2022-12-20T06:24:16.949Z,9.75
2022-12-20T06:27:06.996Z,9.43
2022-12-20T06:29:56.658Z,9.57
2022-12-20T06:32:44.941Z,9.20
2022-12-20T06:35:33.264Z,9.52
2022-12-20T06:38:21.529Z,10.30
2022-12-20T06:41:09.801Z,9.88
2022-12-20T06:43:58.104Z,9.93
2022-12-20T06:46:47.681Z,10.32
2022-12-20T06:49:35.921Z,10.45
2022-12-20T06:52:24.532Z,9.73
2022-12-20T06:55:14.357Z,10.00
2022-12-20T06:58:02.613Z,10.65
2022-12-20T07:00:50.970Z,11.77
2022-12-20T07:03:41.286Z,10.57
2022-12-20T07:06:30.222Z,10.95
2022-12-20T07:09:18.561Z,11.73
2022-12-20T07:12:07.528Z,10.98
2022-12-20T07:14:55.842Z,11.23
2022-12-20T07:17:44.258Z,11.30
2022-12-20T07:20:33.938Z,11.82
2022-12-20T07:23:22.252Z,10.68
2022-12-20T07:26:11.239Z,11.52
2022-12-20T07:28:59.568Z,10.30
2022-12-20T07:31:48.382Z,11.07
2022-12-20T07:34:37.771Z,12.02
2022-12-20T07:37:29.260Z,11.68
2022-12-20T07:40:17.695Z,10.95
2022-12-20T07:43:05.927Z,11.30
2022-12-20T07:45:56.983Z,11.35
2022-12-20T07:51:37.824Z,12.30
2022-12-20T07:54:29.931Z,12.45
2022-12-20T07:57:23.678Z,11.10
2022-12-20T08:00:13.193Z,11.27
2022-12-20T08:03:06.653Z,11.15
2022-12-20T08:05:59.212Z,10.65
2022-12-20T08:08:50.383Z,12.02
2022-12-20T08:17:18.241Z,10.93
2022-12-20T08:20:08.619Z,11.20
2022-12-20T08:22:56.906Z,9.40
2022-12-20T08:25:45.184Z,11.20
2022-12-20T08:28:35.320Z,10.73
2022-12-20T08:31:24.354Z,10.80
2022-12-20T08:34:13.204Z,10.55
2022-12-20T08:37:01.532Z,10.65
2022-12-20T08:39:49.920Z,10.40
2022-12-20T08:42:38.366Z,9.63
2022-12-20T08:45:28.105Z,9.82
2022-12-20T08:48:17.272Z,10.50
2022-12-20T08:51:07.955Z,10.40
2022-12-20T08:53:56.301Z,11.07
2022-12-20T08:56:44.658Z,10.77
2022-12-20T08:59:32.938Z,11.02
2022-12-20T09:02:22.623Z,11.73
2022-12-20T09:05:11.312Z,10.90
2022-12-20T09:07:59.568Z,11.05
2022-12-20T09:10:47.853Z,10.40
2022-12-20T09:13:43.178Z,10.45
2022-12-20T09:16:33.877Z,10.10
2022-12-20T09:19:23.457Z,10.30
2022-12-20T09:22:11.655Z,11.75
2022-12-20T09:24:59.928Z,9.43
2022-12-20T09:27:48.266Z,11.15
2022-12-20T09:30:36.514Z,11.02
2022-12-20T09:33:24.811Z,11.35
2022-12-20T09:36:15.884Z,11.68
2022-12-20T09:41:52.318Z,12.43
2022-12-20T09:44:42.025Z,11.98
2022-12-20T09:47:30.537Z,13.40
2022-12-20T09:50:20.725Z,13.00
2022-12-20T09:53:19.916Z,13.07
2022-12-20T09:56:15.029Z,12.63
2022-12-20T09:59:05.135Z,13.65
2022-12-20T10:01:53.790Z,12.07
2022-12-20T10:04:42.413Z,12.48
2022-12-20T10:07:40.781Z,12.13
2022-12-20T10:10:43.835Z,12.82
2022-12-20T10:13:56.945Z,12.57
2022-12-20T10:16:47.753Z,12.50
2022-12-20T10:20:09.594Z,12.77
2022-12-20T10:23:03.779Z,12.55
2022-12-20T10:25:55.047Z,12.60
2022-12-20T10:28:44.448Z,12.45
2022-12-20T10:31:35.937Z,12.88
2022-12-20T10:34:24.822Z,13.63
2022-12-20T10:37:14.476Z,14.20
2022-12-20T10:40:07.362Z,13.48
2022-12-20T10:42:57.898Z,13.60
2022-12-20T10:45:55.585Z,12.90
2022-12-20T10:48:47.063Z,13.25
2022-12-20T10:51:35.446Z,12.98
2022-12-20T10:54:25.529Z,13.55
2022-12-20T10:57:19.849Z,12.65
2022-12-20T11:00:31.317Z,12.85
2022-12-20T11:03:21.943Z,12.30
2022-12-20T11:06:17.982Z,13.68
2022-12-20T11:09:31.186Z,12.23
2022-12-20T11:12:19.443Z,11.95
2022-12-20T11:15:31.681Z,12.77
2022-12-20T11:18:34.324Z,11.27
2022-12-20T11:21:29.750Z,12.05
2022-12-20T11:24:28.291Z,12.07
2022-12-20T11:27:28.967Z,12.52
2022-12-20T11:30:21.431Z,9.27
2022-12-20T11:33:27.804Z,12.52
2022-12-20T11:36:25.619Z,11.57
2022-12-20T11:39:21.197Z,12.05
2022-12-20T11:42:19.428Z,12.45
2022-12-20T11:45:15.174Z,12.88
2022-12-20T11:48:23.122Z,13.10
2022-12-20T11:51:26.249Z,12.73
2022-12-20T11:54:22.874Z,11.75
2022-12-20T11:57:17.514Z,13.23
2022-12-20T12:00:07.642Z,12.82
2022-12-20T12:03:00.631Z,13.37
2022-12-20T12:05:55.173Z,13.40
2022-12-20T12:08:47.915Z,13.27
2022-12-20T12:12:06.110Z,12.30
2022-12-20T12:14:56.019Z,13.13
2022-12-20T12:17:49.203Z,14.07
2022-12-20T12:20:55.667Z,13.23
2022-12-20T12:23:50.942Z,13.07
2022-12-20T12:26:41.003Z,12.52
2022-12-20T12:29:31.022Z,13.30
2022-12-20T12:32:25.606Z,12.68
2022-12-20T12:35:26.911Z,12.20
2022-12-20T12:38:43.464Z,12.75
2022-12-20T12:41:53.549Z,12.95
2022-12-20T12:44:49.741Z,12.90
2022-12-20T12:47:45.988Z,11.18
2022-12-20T12:50:40.984Z,12.43
2022-12-20T12:53:35.471Z,12.18
2022-12-20T12:56:45.458Z,12.23
2022-12-20T12:59:52.661Z,12.35
2022-12-20T13:02:54.765Z,12.57
2022-12-20T13:05:46.549Z,12.93
2022-12-20T13:08:51.106Z,12.82
2022-12-20T13:11:46.936Z,12.65
2022-12-20T13:14:51.589Z,12.07
2022-12-20T13:17:55.916Z,12.10
2022-12-20T13:21:34.015Z,11.30
2022-12-20T13:24:56.197Z,12.23
2022-12-20T13:27:52.475Z,12.85
2022-12-20T13:30:40.820Z,12.55
2022-12-20T13:33:41.956Z,11.70
2022-12-20T13:36:35.775Z,11.48
2022-12-20T13:39:38.826Z,13.07
2022-12-20T13:42:43.871Z,12.13
2022-12-20T13:45:32.750Z,11.50
2022-12-20T13:48:26.482Z,11.15
2022-12-20T13:51:18.653Z,11.32
2022-12-20T13:54:09.520Z,10.32
2022-12-20T13:56:59.444Z,11.27
2022-12-20T13:59:51.038Z,11.77
2022-12-20T14:02:43.264Z,11.27
2022-12-20T14:05:38.409Z,10.80
2022-12-20T14:08:31.622Z,12.07
2022-12-20T14:11:22.656Z,11.90
2022-12-20T14:14:15.181Z,12.43
2022-12-20T14:17:17.998Z,11.93
2022-12-20T14:20:13.999Z,12.30
2022-12-20T14:23:06.732Z,12.05
2022-12-20T14:26:00.302Z,10.73
2022-12-20T14:28:51.109Z,11.73
2022-12-20T14:31:42.100Z,11.50
2022-12-20T14:34:41.380Z,12.32
2022-12-20T14:37:33.733Z,12.85
2022-12-20T14:40:23.418Z,13.30
2022-12-20T14:43:17.013Z,13.05
2022-12-20T14:46:20.745Z,12.63
2022-12-20T14:49:23.347Z,12.57
2022-12-20T14:52:18.223Z,12.43
2022-12-20T14:55:10.554Z,12.95
2022-12-20T14:58:03.403Z,12.77
2022-12-20T15:01:00.577Z,12.82
2022-12-20T15:03:55.588Z,13.27
2022-12-20T15:06:45.890Z,13.18
2022-12-20T15:09:38.829Z,14.05
2022-12-20T15:12:42.172Z,12.30
2022-12-20T15:15:32.966Z,12.57
2022-12-20T15:18:22.620Z,12.88
2022-12-20T15:21:18.198Z,13.07
2022-12-20T15:24:11.876Z,12.82
2022-12-20T15:27:01.411Z,13.43
2022-12-20T15:29:50.030Z,13.02
2022-12-20T15:32:43.894Z,13.20
2022-12-20T15:35:43.078Z,12.60
2022-12-20T15:41:43.033Z,13.15
2022-12-20T15:44:36.998Z,12.90
2022-12-20T15:47:27.288Z,12.40
2022-12-20T15:50:15.566Z,9.85
2022-12-20T15:53:07.992Z,13.45
2022-12-20T15:55:57.562Z,12.95
2022-12-20T15:58:46.005Z,13.82
2022-12-20T16:01:41.436Z,13.82
2022-12-20T16:04:30.462Z,12.57
2022-12-20T16:07:19.201Z,13.55
2022-12-20T16:10:14.461Z,13.10
2022-12-20T16:13:07.446Z,13.35
2022-12-20T16:15:55.813Z,13.25
2022-12-20T16:18:46.176Z,12.32
2022-12-20T16:21:36.794Z,12.18
2022-12-20T16:24:24.960Z,12.80
2022-12-20T16:27:13.487Z,12.43
2022-12-20T16:30:01.690Z,13.77
2022-12-20T16:32:50.540Z,12.90
2022-12-20T16:35:40.154Z,13.70
2022-12-20T16:38:28.445Z,13.40
2022-12-20T16:41:18.451Z,13.20
2022-12-20T16:44:06.852Z,12.82
2022-12-20T16:46:55.473Z,13.20
2022-12-20T16:49:51.693Z,13.18
2022-12-20T16:52:43.912Z,12.25
2022-12-20T16:55:39.320Z,11.70
2022-12-20T16:58:52.263Z,12.32
2022-12-20T17:01:42.349Z,12.38
2022-12-20T17:04:30.698Z,12.52
2022-12-20T17:07:18.864Z,13.13
2022-12-20T17:10:11.280Z,12.68
2022-12-20T17:13:00.160Z,13.40
2022-12-20T17:15:49.098Z,13.77
2022-12-20T17:18:42.325Z,12.38
2022-12-20T17:24:37.267Z,14.00
2022-12-20T17:27:26.783Z,12.93
2022-12-20T17:30:15.501Z,12.65
2022-12-20T17:33:03.709Z,12.88
2022-12-20T17:35:53.909Z,12.10
2022-12-20T17:38:42.263Z,13.00
2022-12-20T17:41:32.555Z,13.15
2022-12-20T17:44:24.568Z,12.98
2022-12-20T17:47:13.049Z,13.73
2022-12-20T17:50:01.226Z,13.70
2022-12-20T17:52:50.077Z,12.82
2022-12-20T17:55:38.225Z,13.07
2022-12-20T17:58:26.419Z,12.73
2022-12-20T18:01:24.822Z,14.30
2022-12-20T18:04:15.231Z,12.57
2022-12-20T18:07:04.833Z,13.50
2022-12-20T18:09:53.017Z,12.70
2022-12-20T18:12:41.469Z,13.00
2022-12-20T18:15:29.714Z,13.40
2022-12-20T18:18:19.293Z,12.98
2022-12-20T18:21:09.431Z,12.95
2022-12-20T18:24:04.024Z,13.50
2022-12-20T18:26:52.214Z,13.23
2022-12-20T18:29:40.550Z,12.20
2022-12-20T18:32:28.703Z,17.92
2022-12-20T18:35:20.340Z,16.65
2022-12-20T18:38:08.789Z,18.02
2022-12-20T18:41:01.852Z,16.05
2022-12-20T18:43:52.044Z,14.45
2022-12-20T18:46:43.335Z,13.13
2022-12-20T18:52:24.152Z,11.68
2022-12-20T18:55:12.342Z,14.43
2022-12-20T18:58:02.416Z,15.25
2022-12-20T19:00:53.335Z,14.68
2022-12-20T19:03:41.671Z,15.73
2022-12-20T19:06:35.191Z,17.65
2022-12-20T19:10:10.964Z,15.38
2022-12-20T19:13:19.879Z,14.68
2022-12-20T19:16:19.767Z,13.23
2022-12-20T19:19:09.248Z,12.45
2022-12-20T19:21:57.492Z,13.40
2022-12-20T19:24:47.030Z,13.88
2022-12-20T19:27:35.229Z,11.68
2022-12-20T19:30:23.438Z,11.98
2022-12-20T19:33:11.639Z,10.85
2022-12-20T19:35:59.793Z,11.20
2022-12-20T19:38:51.437Z,11.10
2022-12-20T19:42:15.625Z,11.63
2022-12-20T19:44:59.509Z,11.65
2022-12-20T19:47:53.563Z,11.68
2022-12-20T19:50:44.699Z,10.63
2022-12-20T19:56:23.736Z,10.27
2022-12-20T19:59:14.020Z,8.05
2022-12-20T20:02:06.611Z,10.40
2022-12-20T20:04:55.007Z,9.90
2022-12-20T20:07:49.771Z,9.73
2022-12-20T20:10:38.440Z,11.18
2022-12-20T20:13:28.166Z,9.90
2022-12-20T20:16:22.153Z,9.68
2022-12-20T20:19:11.107Z,10.07
2022-12-20T20:22:06.121Z,9.57
2022-12-20T20:24:54.989Z,9.30
2022-12-20T20:27:43.167Z,10.18
2022-12-20T20:30:31.812Z,10.75
2022-12-20T20:33:22.005Z,11.20
2022-12-20T20:36:14.448Z,11.77
2022-12-20T20:39:04.526Z,11.98
2022-12-20T20:41:52.678Z,10.80
2022-12-20T20:44:40.873Z,11.13
2022-12-20T20:47:29.527Z,10.43
2022-12-20T20:50:24.555Z,10.73
2022-12-20T20:53:12.863Z,11.38
2022-12-20T20:56:01.346Z,12.45
2022-12-20T20:59:02.959Z,12.63
2022-12-20T21:01:53.703Z,12.07
2022-12-20T21:04:41.963Z,12.73
2022-12-20T21:07:31.752Z,11.57
2022-12-20T21:10:21.501Z,12.25
2022-12-20T21:13:16.540Z,11.77
2022-12-20T21:16:09.828Z,12.07
2022-12-20T21:19:08.269Z,11.75
2022-12-20T21:21:56.454Z,12.48
2022-12-20T21:24:46.255Z,12.63
2022-12-20T21:27:34.487Z,12.25
2022-12-20T21:30:22.717Z,12.65
2022-12-20T21:33:10.879Z,13.55
2022-12-20T21:36:00.433Z,13.07
2022-12-20T21:38:50.241Z,13.77
2022-12-20T21:41:39.993Z,13.77
2022-12-20T21:44:28.154Z,12.95
2022-12-20T21:47:16.329Z,12.35
2022-12-20T21:50:06.335Z,12.60
2022-12-20T21:52:54.482Z,12.82
2022-12-20T21:55:42.622Z,12.73
2022-12-20T21:58:32.244Z,13.85
2022-12-20T22:01:22.760Z,13.85
2022-12-20T22:04:14.242Z,15.13
2022-12-20T22:07:02.465Z,15.55
2022-12-20T22:09:50.661Z,14.55
2022-12-20T22:12:38.981Z,14.07
2022-12-20T22:15:28.894Z,13.93
2022-12-20T22:18:17.124Z,14.65
2022-12-20T22:21:05.989Z,13.18
2022-12-20T22:23:55.910Z,13.10
2022-12-20T22:26:47.398Z,12.60
2022-12-20T22:29:35.567Z,11.38
2022-12-20T22:32:25.086Z,10.63
2022-12-20T22:35:16.425Z,10.55
2022-12-20T22:38:08.930Z,9.13
2022-12-20T22:41:06.549Z,9.13
2022-12-20T22:43:56.912Z,8.98
2022-12-20T22:46:45.535Z,8.35
2022-12-20T22:49:35.027Z,8.32
2022-12-20T22:52:23.209Z,8.23
2022-12-20T22:55:11.960Z,8.00
2022-12-20T22:58:00.318Z,8.48
2022-12-20T23:00:49.071Z,8.00
2022-12-20T23:03:37.887Z,7.15
2022-12-20T23:06:27.808Z,8.07
2022-12-20T23:09:15.991Z,7.05
2022-12-20T23:12:22.121Z,7.05
2022-12-20T23:15:29.203Z,7.72
2022-12-20T23:18:17.333Z,7.50
2022-12-20T23:21:23.150Z,8.02
2022-12-20T23:24:13.851Z,8.07
2022-12-20T23:27:02.103Z,7.72
2022-12-20T23:29:50.244Z,7.85
2022-12-20T23:32:38.721Z,7.50
2022-12-20T23:35:27.054Z,7.82
2022-12-20T23:38:15.200Z,7.93
2022-12-20T23:41:09.546Z,8.23
2022-12-20T23:43:57.928Z,7.43
2022-12-20T23:46:46.091Z,7.65
2022-12-20T23:49:34.573Z,7.80
2022-12-20T23:52:22.757Z,8.05
2022-12-20T23:55:11.206Z,8.38
2022-12-20T23:58:00.754Z,8.43
